Time;durP1;ratioP1;P1;durP2;ratioP2;P2;SDS_P1;SDS_P2;PMS_P1;PMS_P2;Temp;Humidity;BMP_temperature;BMP_pressure;BME280_temperature;BME280_humidity;BME280_pressure;Samples;Min_cycle;Max_cycle;Signal;HPM_P1;HPM_P2
2022/04/06 00:01:10;;;;;;;4.05;2.17;;;;;;;20.63;27.26;97174.13;5051632;28;20028;-66
2022/04/06 00:03:35;;;;;;;2.97;2.67;;;;;;;20.66;27.13;97183.56;5052439;28;20033;-66
2022/04/06 00:06:01;;;;;;;3.60;2.33;;;;;;;20.65;27.08;97193.50;5052697;28;20035;-65
2022/04/06 00:08:26;;;;;;;3.05;2.08;;;;;;;20.65;27.17;97182.75;5051445;28;20082;-65
2022/04/06 00:10:52;;;;;;;2.83;1.80;;;;;;;20.63;27.23;97179.50;5030844;28;20107;-65
2022/04/06 00:13:17;;;;;;;3.70;2.13;;;;;;;20.64;27.39;97181.13;5051897;28;20059;-65
2022/04/06 00:15:43;;;;;;;2.63;2.00;;;;;;;20.64;27.19;97182.97;5052209;28;20102;-65
2022/04/06 00:18:09;;;;;;;2.25;1.83;;;;;;;20.66;27.28;97186.25;5051285;28;20491;-65
2022/04/06 00:20:35;;;;;;;2.28;2.08;;;;;;;20.66;27.35;97188.94;5051009;28;20124;-66
2022/04/06 00:23:01;;;;;;;2.40;2.17;;;;;;;20.65;26.96;97196.19;5051430;28;20123;-66
2022/04/06 00:25:26;;;;;;;3.17;2.13;;;;;;;20.65;27.15;97190.81;5052907;28;20044;-64
2022/04/06 00:27:52;;;;;;;2.10;1.90;;;;;;;20.64;27.24;97197.25;5051145;28;20442;-66
2022/04/06 00:30:17;;;;;;;2.67;2.20;;;;;;;20.66;27.18;97208.53;5050967;28;20056;-62
2022/04/06 00:32:43;;;;;;;2.05;1.85;;;;;;;20.61;27.24;97211.16;5050399;28;20392;-67
2022/04/06 00:37:52;;;;;;;3.30;2.17;;;;;;;20.23;27.57;97218.00;5046302;28;20051;-64
2022/04/06 00:40:19;;;;;;;2.28;2.08;;;;;;;20.05;27.84;97214.47;5052533;28;20033;-67
2022/04/06 00:42:46;;;;;;;3.78;2.38;;;;;;;19.91;27.76;97213.13;5052346;28;20051;-67
2022/04/06 00:45:12;;;;;;;3.58;2.58;;;;;;;19.79;27.92;97219.28;5050011;28;20498;-70
2022/04/06 00:47:38;;;;;;;3.08;2.50;;;;;;;19.63;28.23;97215.50;5046365;28;20124;-68
2022/04/06 00:50:04;;;;;;;2.72;1.80;;;;;;;19.57;28.17;97227.16;5051379;28;20403;-70
2022/04/06 00:52:30;;;;;;;2.75;2.30;;;;;;;19.49;28.08;97220.28;5052704;28;20107;-65
2022/04/06 00:54:57;;;;;;;2.78;2.20;;;;;;;19.44;28.21;97230.94;5052057;28;20127;-67
2022/04/06 00:57:23;;;;;;;2.60;2.30;;;;;;;19.39;28.25;97216.59;5051261;28;20111;-67
2022/04/06 00:59:49;;;;;;;2.88;2.60;;;;;;;19.35;28.26;97229.63;5039485;28;20045;-67
2022/04/06 01:02:15;;;;;;;3.22;2.45;;;;;;;19.33;28.53;97221.84;5040708;28;20626;-65
2022/04/06 01:04:40;;;;;;;2.83;2.42;;;;;;;19.28;28.42;97226.28;5046437;28;20044;-68
2022/04/06 01:07:06;;;;;;;2.90;2.50;;;;;;;19.23;28.58;97218.09;5048084;28;20040;-67
2022/04/06 01:09:31;;;;;;;2.92;2.50;;;;;;;19.18;28.52;97216.97;5048657;28;20165;-68
2022/04/06 01:11:57;;;;;;;2.85;2.55;;;;;;;19.14;28.53;97221.16;5048046;28;20395;-68
2022/04/06 01:14:23;;;;;;;2.42;2.22;;;;;;;19.05;28.48;97218.00;5031226;28;20484;-68
2022/04/06 01:17:07;;;;;;;3.65;2.30;;;;;;;18.98;28.70;97209.25;5049570;28;20167;-67
2022/04/06 01:19:43;;;;;;;3.15;2.40;;;;;;;18.94;28.60;97215.28;5049083;28;20119;-66
2022/04/06 01:22:11;;;;;;;2.90;2.30;;;;;;;18.87;28.77;97221.59;5046872;28;20036;-67
2022/04/06 01:24:37;;;;;;;3.10;2.60;;;;;;;18.83;28.76;97223.09;5046973;28;20044;-67
2022/04/06 01:27:03;;;;;;;3.03;2.70;;;;;;;18.79;28.75;97226.47;5047569;28;20094;-66
2022/04/06 01:29:29;;;;;;;2.92;2.25;;;;;;;18.74;28.73;97229.84;5048337;28;20094;-68
2022/04/06 01:31:55;;;;;;;3.50;2.10;;;;;;;18.70;28.87;97234.00;5044548;28;20400;-67
2022/04/06 01:34:20;;;;;;;3.40;2.80;;;;;;;18.67;28.72;97235.31;5049485;28;20529;-67
2022/04/06 01:36:46;;;;;;;3.22;2.55;;;;;;;18.64;28.77;97240.28;5049267;28;20033;-67
2022/04/06 01:39:12;;;;;;;2.22;2.00;;;;;;;18.59;28.82;97236.44;5046386;28;20041;-67
2022/04/06 01:41:40;;;;;;;2.33;2.00;;;;;;;18.53;28.96;97250.75;5044387;28;20111;-67
2022/04/06 01:44:06;;;;;;;2.35;1.95;;;;;;;18.49;29.05;97240.72;5051852;28;20045;-66
2022/04/06 01:46:33;;;;;;;2.42;2.17;;;;;;;18.45;29.10;97246.53;5052879;28;20040;-67
2022/04/06 01:54:28;;;;;;;1.90;1.50;;;;;;;18.40;29.43;97256.28;5047475;28;20143;-66
2022/04/06 01:56:53;;;;;;;1.70;1.30;;;;;;;18.39;29.43;97260.00;5053234;28;20517;-67
2022/04/06 01:59:19;;;;;;;1.98;1.40;;;;;;;18.45;29.53;97285.88;5049056;28;20035;-66
2022/04/06 02:01:51;;;;;;;1.40;1.27;;;;;;;18.48;29.23;97288.09;5052542;28;20032;-67
2022/04/06 02:04:17;;;;;;;1.77;1.27;;;;;;;18.39;29.46;97276.06;5049310;28;20028;-66
2022/04/06 02:06:42;;;;;;;1.55;0.98;;;;;;;18.25;29.71;97270.91;5034268;28;20076;-68
2022/04/06 02:09:09;;;;;;;1.50;1.05;;;;;;;18.14;29.85;97280.50;5047251;28;20041;-67
2022/04/06 02:11:42;;;;;;;1.25;1.00;;;;;;;17.99;30.17;97283.59;5048909;28;20428;-67
2022/04/06 02:14:08;;;;;;;1.92;1.10;;;;;;;17.91;30.00;97277.69;5049321;28;20147;-67
2022/04/06 02:16:35;;;;;;;1.58;0.80;;;;;;;17.82;30.27;97291.34;5049828;28;20044;-68
2022/04/06 02:19:01;;;;;;;1.10;0.90;;;;;;;17.68;30.23;97304.06;5051210;28;20040;-67
2022/04/06 02:21:26;;;;;;;1.27;0.80;;;;;;;17.56;30.21;97296.97;5052523;28;20036;-68
2022/04/06 02:23:52;;;;;;;1.25;0.90;;;;;;;17.46;30.19;97300.16;5052459;28;20035;-69
2022/04/06 02:26:17;;;;;;;1.52;1.17;;;;;;;17.41;30.25;97308.84;5052805;28;20523;-69
2022/04/06 02:28:43;;;;;;;1.48;1.10;;;;;;;17.41;30.15;97305.34;5051797;28;20527;-69
2022/04/06 02:31:08;;;;;;;0.77;0.60;;;;;;;17.37;30.56;97304.97;5052166;28;20090;-68
2022/04/06 02:33:34;;;;;;;1.17;0.90;;;;;;;17.45;30.06;97312.72;5053011;28;20037;-67
2022/04/06 02:36:00;;;;;;;1.15;0.80;;;;;;;17.47;30.07;97318.66;5054843;28;20541;-67
2022/04/06 02:38:25;;;;;;;1.00;0.70;;;;;;;17.52;30.10;97331.38;5053523;28;20037;-66
2022/04/06 02:40:51;;;;;;;1.17;0.90;;;;;;;17.54;30.16;97331.97;5040576;28;20033;-65
2022/04/06 02:43:17;;;;;;;1.42;0.80;;;;;;;17.57;29.93;97341.38;5054235;28;20029;-65
2022/04/06 02:45:43;;;;;;;1.17;0.70;;;;;;;17.51;29.81;97338.56;5054636;28;20037;-68
2022/04/06 02:48:08;;;;;;;1.23;0.65;;;;;;;17.52;29.90;97337.50;5054030;28;20035;-68
2022/04/06 02:50:34;;;;;;;1.52;0.75;;;;;;;17.57;29.99;97341.38;5054108;28;20040;-66
2022/04/06 02:52:59;;;;;;;3.72;0.60;;;;;;;17.60;30.06;97355.13;5054530;28;20384;-67
2022/04/06 02:55:25;;;;;;;1.02;0.75;;;;;;;17.61;29.84;97362.13;5053677;28;20103;-68
2022/04/06 02:57:50;;;;;;;1.55;0.80;;;;;;;17.57;29.75;97350.25;5053573;28;20506;-68
2022/04/06 03:00:16;;;;;;;1.05;0.63;;;;;;;17.54;29.93;97366.72;5054511;28;20036;-66
2022/04/06 03:02:43;;;;;;;1.25;0.90;;;;;;;17.51;29.93;97369.84;5053553;28;20542;-68
2022/04/06 03:05:08;;;;;;;1.05;0.85;;;;;;;17.53;29.93;97371.25;5053517;28;20036;-66
2022/04/06 03:07:34;;;;;;;0.77;0.70;;;;;;;17.54;29.53;97378.22;5053730;28;20090;-68
2022/04/06 03:10:03;;;;;;;1.02;0.60;;;;;;;17.53;29.63;97389.16;5052966;28;20115;-67
2022/04/06 03:12:28;;;;;;;0.43;0.43;;;;;;;17.57;29.74;97390.34;5053539;28;20037;-66
2022/04/06 03:14:54;;;;;;;0.40;0.40;;;;;;;17.60;29.36;97387.22;5053565;28;20103;-66
2022/04/06 03:17:19;;;;;;;1.45;0.50;;;;;;;17.60;29.39;97402.47;5053845;28;20041;-66
2022/04/06 03:19:45;;;;;;;0.50;0.30;;;;;;;17.59;29.58;97392.81;5053846;28;20066;-66
2022/04/06 03:22:17;;;;;;;0.70;0.50;;;;;;;17.63;29.31;97394.81;5053313;28;20123;-66
2022/04/06 03:24:43;;;;;;;0.80;0.50;;;;;;;17.66;29.51;97407.75;5052800;28;20045;-68
2022/04/06 03:27:09;;;;;;;1.05;0.40;;;;;;;17.68;29.17;97420.88;5054033;28;20063;-67
2022/04/06 03:29:34;;;;;;;0.80;0.45;;;;;;;17.66;29.17;97421.13;5051997;28;20477;-67
2022/04/06 03:32:00;;;;;;;1.08;0.60;;;;;;;17.61;28.92;97431.66;5053278;28;20526;-68
2022/04/06 03:34:26;;;;;;;0.60;0.35;;;;;;;17.56;29.08;97428.81;5053515;28;20044;-66
2022/04/06 03:36:51;;;;;;;0.68;0.40;;;;;;;17.54;28.92;97431.69;5053084;28;20069;-68
2022/04/06 03:39:17;;;;;;;1.23;0.40;;;;;;;17.49;29.02;97449.44;5052686;28;20430;-68
2022/04/06 03:41:42;;;;;;;1.10;0.32;;;;;;;17.45;29.01;97445.53;5053587;28;20459;-67
2022/04/06 03:44:08;;;;;;;0.40;0.40;;;;;;;17.46;28.95;97465.91;5053048;28;20035;-68
2022/04/06 03:46:33;;;;;;;0.65;0.60;;;;;;;17.45;28.98;97459.75;5052413;28;20064;-68
2022/04/06 03:48:59;;;;;;;0.70;0.30;;;;;;;17.44;28.69;97468.81;5052885;28;20040;-68
2022/04/06 03:51:24;;;;;;;2.25;0.50;;;;;;;17.46;28.76;97466.75;5053234;28;20040;-66
2022/04/06 03:53:50;;;;;;;0.55;0.20;;;;;;;17.46;28.41;97464.06;5052437;28;20036;-67
2022/04/06 03:56:15;;;;;;;0.25;0.20;;;;;;;17.45;28.37;97469.59;5053257;28;20124;-67
2022/04/06 03:58:41;;;;;;;0.40;0.20;;;;;;;17.42;28.44;97478.88;5052682;28;20040;-67
2022/04/06 04:01:06;;;;;;;0.45;0.20;;;;;;;17.45;28.56;97486.47;5052501;28;20511;-67
2022/04/06 04:03:32;;;;;;;0.45;0.25;;;;;;;17.49;28.21;97484.19;5052913;28;20491;-68
2022/04/06 04:05:57;;;;;;;0.75;0.30;;;;;;;17.52;28.15;97481.09;5052971;28;20114;-67
2022/04/06 04:08:23;;;;;;;0.65;0.20;;;;;;;17.58;28.31;97496.25;5048861;28;20583;-68
2022/04/06 04:10:49;;;;;;;0.57;0.30;;;;;;;17.63;28.14;97491.09;5052972;28;20076;-68
2022/04/06 04:13:14;;;;;;;0.17;0.15;;;;;;;17.71;27.93;97505.25;5052666;28;20107;-68
2022/04/06 04:15:40;;;;;;;0.20;0.10;;;;;;;17.73;27.96;97505.81;5052865;28;20040;-69
2022/04/06 04:18:05;;;;;;;0.30;0.20;;;;;;;17.76;27.95;97503.56;5045613;28;20041;-69
2022/04/06 04:20:31;;;;;;;1.35;0.30;;;;;;;17.79;27.65;97508.44;5041878;28;20064;-68
2022/04/06 04:22:56;;;;;;;0.45;0.30;;;;;;;17.83;27.88;97515.00;5052491;28;20040;-69
2022/04/06 04:25:22;;;;;;;0.30;0.20;;;;;;;17.88;27.81;97509.00;5052782;28;20064;-70
2022/04/06 04:27:47;;;;;;;0.20;0.20;;;;;;;18.00;27.81;97533.22;5051992;28;20115;-67
2022/04/06 04:30:13;;;;;;;0.55;0.20;;;;;;;18.03;27.29;97530.13;5051933;28;20056;-68
2022/04/06 04:32:38;;;;;;;0.47;0.30;;;;;;;18.04;27.40;97531.75;5051868;28;20036;-65
2022/04/06 04:35:06;;;;;;;0.30;0.28;;;;;;;18.08;27.52;97548.19;5052096;28;20555;-68
2022/04/06 04:37:33;;;;;;;0.93;0.40;;;;;;;18.07;27.61;97544.72;5051875;28;20040;-68
2022/04/06 04:39:58;;;;;;;0.20;0.20;;;;;;;18.10;27.61;97541.56;5052227;28;20037;-68
2022/04/06 04:42:24;;;;;;;0.95;0.35;;;;;;;18.15;27.51;97538.25;5052355;28;20116;-68
2022/04/06 04:44:49;;;;;;;0.55;0.20;;;;;;;18.19;27.54;97558.19;5051592;28;20496;-68
2022/04/06 04:47:16;;;;;;;0.25;0.20;;;;;;;18.23;27.16;97554.03;5052298;28;20036;-68
2022/04/06 04:49:42;;;;;;;0.47;0.20;;;;;;;18.22;27.00;97563.09;5038382;28;20111;-67
2022/04/06 04:52:08;;;;;;;0.28;0.22;;;;;;;18.24;27.16;97568.22;5046208;28;20115;-68
2022/04/06 04:54:33;;;;;;;0.57;0.20;;;;;;;18.26;27.12;97569.66;5052526;28;20116;-67
2022/04/06 04:56:59;;;;;;;0.52;0.30;;;;;;;18.38;27.04;97575.09;5052493;28;20040;-68
2022/04/06 04:59:25;;;;;;;0.63;0.20;;;;;;;18.52;26.83;97566.97;5051375;28;20040;-69
2022/04/06 05:01:51;;;;;;;0.93;0.30;;;;;;;18.69;26.83;97580.59;5051733;28;20119;-69
2022/04/06 05:04:16;;;;;;;0.20;0.20;;;;;;;18.78;26.76;97584.63;5051271;28;20033;-67
2022/04/06 05:06:42;;;;;;;0.47;0.20;;;;;;;18.70;26.92;97575.00;5051923;28;20036;-68
2022/04/06 05:09:07;;;;;;;0.70;0.25;;;;;;;18.78;26.76;97586.50;5051974;28;20029;-69
2022/04/06 05:11:33;;;;;;;0.82;0.30;;;;;;;18.79;26.64;97590.81;5052215;28;20037;-68
2022/04/06 05:13:59;;;;;;;1.23;0.32;;;;;;;19.03;26.63;97595.31;5051390;28;20029;-69
2022/04/06 05:16:24;;;;;;;1.17;0.40;;;;;;;18.96;26.62;97599.09;5052367;28;20447;-70
2022/04/06 05:18:50;;;;;;;0.55;0.30;;;;;;;18.83;26.76;97600.84;5054235;28;20029;-68
2022/04/06 05:21:15;;;;;;;0.52;0.35;;;;;;;18.76;26.76;97602.78;5056057;28;20029;-69
2022/04/06 05:23:41;;;;;;;0.73;0.30;;;;;;;18.68;26.80;97603.88;5055235;28;20033;-69
2022/04/06 05:26:06;;;;;;;0.20;0.17;;;;;;;18.95;26.42;97613.53;5055872;28;20039;-67
2022/04/06 05:28:32;;;;;;;1.08;0.50;;;;;;;19.23;26.26;97612.19;5054543;28;20198;-68
2022/04/06 05:30:57;;;;;;;2.40;0.40;;;;;;;19.52;25.97;97613.31;5055817;28;20507;-68
2022/04/06 05:33:23;;;;;;;1.02;0.35;;;;;;;19.75;25.64;97622.47;5037305;28;20074;-69
2022/04/06 05:35:48;;;;;;;0.20;0.20;;;;;;;19.93;25.41;97632.38;5055671;28;20036;-66
2022/04/06 05:38:14;;;;;;;0.75;0.30;;;;;;;20.08;25.08;97623.91;5052115;28;20076;-69
2022/04/06 05:40:39;;;;;;;1.58;0.95;;;;;;;20.20;24.98;97645.44;5055708;28;20025;-68
2022/04/06 05:43:05;;;;;;;0.40;0.30;;;;;;;19.91;25.42;97639.84;5055803;28;20070;-67
2022/04/06 05:45:31;;;;;;;0.90;0.30;;;;;;;19.78;25.64;97657.72;5055450;28;20040;-68
2022/04/06 05:47:56;;;;;;;0.63;0.30;;;;;;;19.66;25.56;97659.53;5055234;28;20037;-69
2022/04/06 05:50:22;;;;;;;0.50;0.20;;;;;;;19.51;25.99;97644.66;5055221;28;20397;-69
2022/04/06 05:52:50;;;;;;;0.50;0.40;;;;;;;19.46;26.07;97643.69;5055451;28;20036;-68
2022/04/06 05:55:16;;;;;;;0.57;0.30;;;;;;;19.48;26.04;97658.50;5055471;28;20045;-69
2022/04/06 05:57:42;;;;;;;0.52;0.30;;;;;;;19.39;26.03;97657.19;5055343;28;20062;-68
2022/04/06 06:00:08;;;;;;;0.40;0.30;;;;;;;19.25;26.32;97658.38;5055265;28;20065;-67
2022/04/06 06:02:35;;;;;;;0.28;0.28;;;;;;;19.12;26.44;97665.53;5054608;28;20036;-67
2022/04/06 06:05:01;;;;;;;0.77;0.40;;;;;;;19.03;26.60;97666.88;5055129;28;20045;-69
2022/04/06 06:07:27;;;;;;;0.50;0.35;;;;;;;18.93;26.75;97678.06;5055120;28;20048;-68
2022/04/06 06:09:52;;;;;;;0.52;0.30;;;;;;;18.83;26.82;97683.91;5055298;28;20399;-69
2022/04/06 06:12:18;;;;;;;0.80;0.30;;;;;;;18.81;27.06;97693.22;5054608;28;20029;-68
2022/04/06 06:14:43;;;;;;;0.32;0.30;;;;;;;18.78;27.13;97693.66;5054679;28;20048;-67
2022/04/06 06:17:09;;;;;;;0.85;0.40;;;;;;;18.70;27.20;97695.56;5054887;28;20037;-69
2022/04/06 06:19:34;;;;;;;1.30;0.40;;;;;;;18.69;27.07;97699.28;5054471;28;20388;-64
2022/04/06 06:22:00;;;;;;;1.75;0.30;;;;;;;18.67;27.18;97706.75;5054704;28;20538;-67
2022/04/06 06:24:25;;;;;;;0.82;0.45;;;;;;;18.64;26.92;97712.53;5020700;28;20048;-67
2022/04/06 06:26:52;;;;;;;0.98;0.32;;;;;;;18.62;26.94;97703.88;5035933;28;20033;-67
2022/04/06 06:29:17;;;;;;;0.57;0.38;;;;;;;18.67;26.68;97709.41;5052533;28;20130;-68
2022/04/06 06:31:43;;;;;;;1.08;0.40;;;;;;;18.74;26.56;97714.72;5054182;28;20484;-68
2022/04/06 06:34:08;;;;;;;0.32;0.20;;;;;;;18.76;26.42;97716.13;5055006;28;20357;-67
2022/04/06 06:36:34;;;;;;;0.40;0.20;;;;;;;18.80;26.43;97715.69;5054739;28;20083;-68
2022/04/06 06:39:00;;;;;;;1.98;0.50;;;;;;;18.80;26.27;97726.41;5054075;28;20083;-68
2022/04/06 06:41:27;;;;;;;0.20;0.20;;;;;;;18.84;26.07;97730.28;5053762;28;20451;-68
2022/04/06 06:43:53;;;;;;;0.95;0.40;;;;;;;18.80;25.97;97727.22;5054132;28;20036;-68
2022/04/06 06:46:20;;;;;;;0.60;0.28;;;;;;;18.72;26.03;97727.50;5054177;28;20032;-67
2022/04/06 06:48:46;;;;;;;0.73;0.43;;;;;;;18.68;25.99;97728.97;5054123;28;20073;-67
2022/04/06 06:51:13;;;;;;;0.77;0.30;;;;;;;18.65;26.20;97735.59;5036349;28;20039;-68
2022/04/06 06:53:39;;;;;;;0.57;0.38;;;;;;;18.63;25.96;97734.16;5053255;28;20043;-69
2022/04/06 06:56:05;;;;;;;0.95;0.40;;;;;;;18.59;26.10;97729.25;5036141;28;20132;-67
2022/04/06 06:58:31;;;;;;;2.13;0.40;;;;;;;18.63;26.03;97735.00;5054289;28;20459;-67
2022/04/06 07:00:56;;;;;;;0.80;0.30;;;;;;;18.61;25.94;97732.50;5053745;28;20053;-68
2022/04/06 07:03:22;;;;;;;1.00;0.30;;;;;;;18.57;25.98;97734.00;5053326;28;20075;-68
2022/04/06 07:05:48;;;;;;;0.85;0.50;;;;;;;18.56;25.92;97734.19;5035328;28;20040;-69
2022/04/06 07:08:14;;;;;;;1.98;0.40;;;;;;;18.53;25.58;97745.38;5053670;28;20040;-67
2022/04/06 07:10:44;;;;;;;2.25;0.38;;;;;;;18.48;25.85;97743.31;5053804;28;20037;-68
2022/04/06 07:13:12;;;;;;;0.90;0.32;;;;;;;18.43;26.10;97752.00;5053273;28;20052;-68
2022/04/06 07:15:39;;;;;;;2.60;0.50;;;;;;;18.39;25.91;97740.06;5053285;28;20531;-70
2022/04/06 07:18:07;;;;;;;5.43;0.22;;;;;;;18.41;26.09;97761.28;5053532;28;20404;-69
2022/04/06 07:20:35;;;;;;;1.48;0.20;;;;;;;18.60;26.30;97751.50;5053550;28;20045;-68
2022/04/06 07:23:05;;;;;;;0.77;0.30;;;;;;;18.85;26.29;97753.34;5052827;28;20086;-70
2022/04/06 07:25:31;;;;;;;0.85;0.32;;;;;;;19.09;26.34;97751.75;5053532;28;20123;-70
2022/04/06 07:27:57;;;;;;;2.03;0.40;;;;;;;19.30;26.30;97753.19;5053420;28;20029;-69
2022/04/06 07:30:23;;;;;;;3.33;0.60;;;;;;;19.49;26.06;97754.03;5053681;28;20052;-69
2022/04/06 07:32:49;;;;;;;1.40;0.40;;;;;;;19.54;25.75;97763.28;5052199;28;20412;-70
2022/04/06 07:35:16;;;;;;;1.20;0.40;;;;;;;19.48;25.33;97752.38;5053522;28;20033;-69
2022/04/06 07:37:49;;;;;;;2.25;0.52;;;;;;;19.43;25.26;97765.66;5053552;28;20037;-69
2022/04/06 07:40:18;;;;;;;2.22;0.40;;;;;;;19.38;25.39;97759.31;5052996;28;20029;-68
2022/04/06 07:42:44;;;;;;;0.95;0.30;;;;;;;19.33;25.14;97763.50;5052512;28;20027;-68
2022/04/06 07:45:18;;;;;;;0.93;0.30;;;;;;;19.26;24.95;97757.38;5053027;28;20029;-69
2022/04/06 07:47:49;;;;;;;1.25;0.20;;;;;;;19.18;24.87;97763.84;5052938;28;20067;-70
2022/04/06 07:50:15;;;;;;;0.93;0.30;;;;;;;19.10;24.92;97760.63;5034905;28;20167;-69
2022/04/06 07:52:42;;;;;;;0.85;0.45;;;;;;;19.01;24.90;97757.41;5033328;28;20033;-67
2022/04/06 07:55:09;;;;;;;1.15;0.50;;;;;;;19.00;24.85;97758.44;5053265;28;20063;-69
2022/04/06 07:57:36;;;;;;;0.40;0.20;;;;;;;18.96;24.90;97760.75;5053048;28;20060;-66
2022/04/06 08:00:09;;;;;;;1.17;0.50;;;;;;;18.96;24.79;97762.59;5052544;28;20112;-68
2022/04/06 08:02:35;;;;;;;0.68;0.35;;;;;;;18.92;24.76;97762.97;5053674;28;20032;-68
2022/04/06 08:05:02;;;;;;;0.65;0.50;;;;;;;18.89;24.71;97766.13;5052749;28;20035;-68
2022/04/06 08:07:28;;;;;;;0.52;0.30;;;;;;;18.88;24.79;97764.47;5052981;28;20397;-70
2022/04/06 08:09:53;;;;;;;0.50;0.25;;;;;;;18.92;24.59;97765.66;5052078;28;20029;-67
2022/04/06 08:12:19;;;;;;;1.35;0.47;;;;;;;18.94;24.55;97753.91;5053043;28;20121;-67
2022/04/06 08:14:46;;;;;;;0.60;0.43;;;;;;;18.97;24.44;97761.53;5053024;28;20033;-69
2022/04/06 08:17:11;;;;;;;1.42;0.50;;;;;;;18.99;24.38;97759.47;5052528;28;20040;-68
2022/04/06 08:19:37;;;;;;;1.02;0.20;;;;;;;18.99;24.41;97771.00;5051643;28;20033;-68
2022/04/06 08:22:03;;;;;;;0.68;0.25;;;;;;;18.99;24.19;97767.50;5052735;28;20474;-68
2022/04/06 08:24:29;;;;;;;1.38;0.50;;;;;;;19.00;24.19;97766.47;5052216;28;20107;-68
2022/04/06 08:26:54;;;;;;;1.52;0.40;;;;;;;18.98;24.07;97776.59;5052505;28;20140;-68
2022/04/06 08:29:20;;;;;;;2.50;0.40;;;;;;;19.00;24.15;97779.88;5051738;28;20063;-67
2022/04/06 08:31:50;;;;;;;1.15;0.40;;;;;;;19.04;24.17;97778.41;5052107;28;20439;-68
2022/04/06 08:34:43;;;;;;;0.68;0.30;;;;;;;19.04;23.87;97773.84;5051584;28;20032;-68
2022/04/06 08:38:05;;;;;;;0.88;0.30;;;;;;;19.10;23.78;97782.06;5039271;28;20048;-66
2022/04/06 08:40:35;;;;;;;0.95;0.40;;;;;;;19.10;23.95;97779.38;5020297;28;20120;-66
2022/04/06 08:43:43;;;;;;;1.00;0.40;;;;;;;19.11;23.74;97773.78;5032452;28;20409;-68
2022/04/06 08:46:11;;;;;;;1.33;0.40;;;;;;;19.09;23.89;97773.19;5047589;28;20044;-68
2022/04/06 08:48:38;;;;;;;1.02;0.22;;;;;;;19.03;24.07;97774.09;5052502;28;20444;-67
2022/04/06 08:51:07;;;;;;;1.70;0.38;;;;;;;19.06;24.24;97784.34;5052164;28;20041;-67
2022/04/06 08:53:33;;;;;;;2.65;0.52;;;;;;;19.07;24.21;97783.31;5053851;28;20032;-67
2022/04/06 08:55:59;;;;;;;1.13;0.52;;;;;;;19.10;24.22;97774.84;5056748;28;20476;-68
2022/04/06 08:58:24;;;;;;;1.38;0.32;;;;;;;19.15;24.08;97785.72;5056188;28;20127;-67
2022/04/06 09:00:50;;;;;;;1.42;0.38;;;;;;;19.16;24.08;97787.38;5055469;28;20043;-66
2022/04/06 09:03:16;;;;;;;1.15;0.40;;;;;;;19.18;23.80;97771.06;5055155;28;20037;-64
2022/04/06 09:05:42;;;;;;;2.65;0.35;;;;;;;19.19;24.16;97783.41;5054170;28;20420;-66
2022/04/06 09:08:07;;;;;;;0.38;0.25;;;;;;;19.22;24.27;97777.63;5050923;28;20047;-67
2022/04/06 09:10:37;;;;;;;3.33;0.55;;;;;;;19.21;24.44;97779.47;5049158;28;20037;-68
2022/04/06 09:13:20;;;;;;;1.63;0.50;;;;;;;19.18;24.19;97785.28;5052000;28;20037;-67
2022/04/06 09:15:47;;;;;;;0.43;0.30;;;;;;;19.13;24.14;97785.13;5052981;28;20075;-69
2022/04/06 09:18:14;;;;;;;0.75;0.30;;;;;;;19.06;24.00;97778.97;5054621;28;20033;-68
2022/04/06 09:20:39;;;;;;;1.55;0.30;;;;;;;19.05;23.98;97780.03;5055472;28;20033;-69
2022/04/06 09:23:06;;;;;;;1.10;0.45;;;;;;;19.07;24.15;97775.25;5053505;28;20087;-67
2022/04/06 09:25:39;;;;;;;1.67;0.50;;;;;;;19.06;23.94;97778.97;5054720;28;20162;-68
2022/04/06 09:28:06;;;;;;;0.75;0.30;;;;;;;19.05;23.74;97783.53;5048782;28;20048;-68
2022/04/06 09:30:35;;;;;;;0.90;0.55;;;;;;;19.01;23.76;97770.78;5053250;28;20128;-66
2022/04/06 09:33:03;;;;;;;1.55;0.30;;;;;;;19.02;23.93;97778.59;5052201;28;20063;-67
2022/04/06 09:35:30;;;;;;;0.90;0.20;;;;;;;19.05;23.57;97772.81;5053781;28;20032;-67
2022/04/06 09:38:31;;;;;;;0.82;0.25;;;;;;;19.06;23.51;97778.97;5051291;28;20037;-66
2022/04/06 09:41:01;;;;;;;2.10;0.17;;;;;;;19.06;23.47;97778.97;4991926;28;20078;-66
2022/04/06 09:43:31;;;;;;;1.38;0.35;;;;;;;19.10;23.46;97765.97;5050694;28;20072;-64
2022/04/06 09:49:01;;;;;;;0.98;0.32;;;;;;;19.04;23.44;97768.50;5052501;28;20048;-66
2022/04/06 09:51:27;;;;;;;1.33;0.60;;;;;;;19.02;23.61;97777.81;5053868;28;20395;-66
2022/04/06 09:53:53;;;;;;;1.60;0.30;;;;;;;19.06;23.92;97773.63;5053767;28;20032;-66
2022/04/06 09:56:20;;;;;;;0.88;0.40;;;;;;;19.06;23.78;97774.47;5051381;28;20044;-68
2022/04/06 09:58:46;;;;;;;0.70;0.30;;;;;;;19.09;23.73;97772.38;5051543;28;20078;-70
2022/04/06 10:01:13;;;;;;;0.50;0.40;;;;;;;19.06;24.04;97777.13;5054701;28;20437;-68
2022/04/06 10:03:41;;;;;;;1.13;0.50;;;;;;;19.07;23.91;97772.59;5052726;28;20032;-70
2022/04/06 10:06:07;;;;;;;1.08;0.40;;;;;;;19.05;24.02;97769.28;5053822;28;20040;-68
2022/04/06 10:08:32;;;;;;;2.08;0.43;;;;;;;18.99;23.85;97760.28;5032313;28;20553;-69
2022/04/06 10:10:59;;;;;;;0.82;0.30;;;;;;;19.01;23.49;97770.78;5051083;28;20116;-72
2022/04/06 10:13:25;;;;;;;0.50;0.30;;;;;;;19.02;23.56;97772.44;5049582;28;20039;-69
2022/04/06 10:15:51;;;;;;;1.67;1.13;;;;;;;19.06;23.87;97768.25;5051285;28;20033;-68
2022/04/06 21:48:28;;;;;;;1.38;0.85;;;;;;;15.96;28.76;98290.06;5142893;27;20218;-65
2022/04/06 21:50:53;;;;;;;5.78;1.05;;;;;;;16.17;28.65;98287.47;5131026;27;20125;-66
2022/04/06 21:53:20;;;;;;;4.30;1.15;;;;;;;16.39;28.43;98295.50;5153192;27;20160;-67
2022/04/06 21:55:46;;;;;;;1.42;0.80;;;;;;;16.59;28.29;98290.38;5145547;27;20489;-66
2022/04/06 21:58:12;;;;;;;2.20;1.08;;;;;;;16.77;27.79;98303.28;5133643;27;20045;-65
2022/04/06 22:00:38;;;;;;;1.50;0.90;;;;;;;16.93;27.73;98296.00;5131876;27;20488;-65
2022/04/06 22:03:04;;;;;;;2.47;2.28;;;;;;;17.11;27.43;98300.09;5136599;27;20033;-64
2022/04/06 22:05:31;;;;;;;1.55;0.95;;;;;;;17.24;27.75;98301.00;5132453;27;20038;-63
2022/04/06 22:07:56;;;;;;;3.08;1.10;;;;;;;17.37;27.59;98297.59;5138266;27;20027;-64
2022/04/06 22:10:22;;;;;;;1.55;1.10;;;;;;;17.48;27.26;98301.59;5145232;27;20038;-64
